Terminal Aerodrome Forecast
Issued by NWS Shreveport, LA

Home | Current Version | Previous Version | Text Only | Print | Product List | Glossary On
Versions: 1 2 3 4 5 6 7 8 9 10 11 12 13 14 15 16 17 18 19 20 21
177
FTUS44 KSHV 220520
TAFSHV
TAF
KSHV 220520Z 2206/2306 24014G22KT P6SM VCSH SCT100 BKN250
      TEMPO 2207/2211 5SM -SHRA BR BKN080
     FM221100 21006KT P6SM BKN080 BKN250
     FM221500 26012G18KT P6SM BKN100 BKN250
     FM221800 28015G25KT P6SM VCSH BKN040 BKN100 BKN250
     FM230000 30018G28KT P6SM BKN035=

USA.gov is the U.S. government's official web portal to all federal, state and local government web resources and services.